Time;durP1;ratioP1;P1;durP2;ratioP2;P2;SDS_P1;SDS_P2;PMS_P1;PMS_P2;Temp;Humidity;BMP_temperature;BMP_pressure;BME280_temperature;BME280_humidity;BME280_pressure;Samples;Min_cycle;Max_cycle;Signal;HPM_P1;HPM_P2
2022/11/06 00:01:50;;;;;;;13.70;5.55;;;;;;;9.61;100.00;101484.78;7377195;19;20266;-73
2022/11/06 00:04:23;;;;;;;16.13;5.88;;;;;;;9.64;100.00;101470.88;7382132;19;20017;-71
2022/11/06 00:06:50;;;;;;;14.93;6.20;;;;;;;9.62;100.00;101465.59;7379443;19;20018;-74
2022/11/06 00:09:22;;;;;;;10.80;5.72;;;;;;;9.64;100.00;101463.91;7378142;19;20095;-73
2022/11/06 00:11:53;;;;;;;15.80;6.90;;;;;;;9.65;100.00;101454.31;7379372;19;20147;-74
2022/11/06 00:14:22;;;;;;;13.35;5.20;;;;;;;9.65;100.00;101447.34;7376556;19;20007;-74
2022/11/06 00:16:52;;;;;;;11.32;5.57;;;;;;;9.64;100.00;101455.19;7375815;19;20335;-71
2022/11/06 00:19:24;;;;;;;13.63;5.40;;;;;;;9.63;100.00;101433.34;7378007;19;20668;-74
2022/11/06 00:21:54;;;;;;;13.57;5.63;;;;;;;9.67;100.00;101447.41;7376383;19;20880;-74
2022/11/06 00:24:23;;;;;;;13.23;5.95;;;;;;;9.68;100.00;101446.56;7377459;19;20018;-70
2022/11/06 00:26:53;;;;;;;18.27;5.80;;;;;;;9.65;100.00;101444.75;7376697;19;20461;-73
2022/11/06 00:29:23;;;;;;;10.40;5.35;;;;;;;9.66;100.00;101446.50;7376658;19;20054;-73
2022/11/06 00:31:53;;;;;;;14.60;6.05;;;;;;;9.67;100.00;101447.41;7376427;19;20018;-70
2022/11/06 00:34:25;;;;;;;14.55;6.05;;;;;;;9.68;100.00;101438.69;7377956;19;20022;-73
2022/11/06 00:36:55;;;;;;;14.88;5.45;;;;;;;9.69;100.00;101445.72;7373599;19;20017;-71
2022/11/06 00:39:25;;;;;;;11.88;5.15;;;;;;;9.70;100.00;101448.38;7379759;19;20031;-70
2022/11/06 00:41:54;;;;;;;11.50;4.93;;;;;;;9.73;100.00;101444.94;7376842;19;20010;-74
2022/11/06 00:44:24;;;;;;;15.55;5.70;;;;;;;9.64;100.00;101440.34;7375588;19;20446;-71
2022/11/06 00:46:54;;;;;;;10.88;5.60;;;;;;;9.64;100.00;101445.59;7372066;19;20010;-73
2022/11/06 00:49:26;;;;;;;13.38;6.40;;;;;;;9.64;100.00;101437.72;7377391;19;20014;-74
2022/11/06 00:51:56;;;;;;;14.30;5.82;;;;;;;9.67;100.00;101445.66;7371612;19;20021;-71
2022/11/06 00:54:26;;;;;;;9.68;5.45;;;;;;;9.64;100.00;101453.44;7375164;19;20447;-71
2022/11/06 00:56:56;;;;;;;16.42;6.57;;;;;;;9.61;100.00;101453.34;7379847;19;20003;-71
2022/11/06 00:59:26;;;;;;;12.95;5.60;;;;;;;9.59;100.00;101449.81;7378081;19;20106;-71
2022/11/06 01:01:55;;;;;;;14.30;5.97;;;;;;;9.57;100.00;101445.38;7374999;19;20011;-73
2022/11/06 01:04:28;;;;;;;11.32;6.15;;;;;;;9.54;100.00;101440.06;7376941;19;20007;-71
2022/11/06 01:06:58;;;;;;;14.23;6.03;;;;;;;9.55;100.00;101442.72;7376754;19;20017;-70
2022/11/06 01:09:29;;;;;;;10.68;5.35;;;;;;;9.50;100.00;101445.22;7373378;19;20018;-70
2022/11/06 01:12:01;;;;;;;10.75;5.43;;;;;;;9.48;100.00;101436.44;7375934;19;20025;-71
2022/11/06 01:14:46;;;;;;;11.68;5.70;;;;;;;9.42;100.00;101431.03;7378573;19;20356;-73
2022/11/06 01:17:16;;;;;;;12.98;5.80;;;;;;;9.39;100.00;101432.66;7376434;19;20019;-74
2022/11/06 01:19:48;;;;;;;20.15;6.72;;;;;;;9.35;100.00;101423.88;7371183;19;20537;-70
2022/11/06 01:22:19;;;;;;;15.13;6.10;;;;;;;9.38;100.00;101431.78;7375270;19;20011;-70
2022/11/06 01:24:48;;;;;;;14.27;5.68;;;;;;;9.37;100.00;101422.16;7375375;19;20006;-73
2022/11/06 01:27:18;;;;;;;16.73;7.30;;;;;;;9.33;100.00;101412.47;7373272;19;20011;-69
2022/11/06 01:29:55;;;;;;;11.55;5.90;;;;;;;9.34;100.00;101414.25;7376153;19;20006;-69
2022/11/06 01:32:25;;;;;;;13.18;6.07;;;;;;;9.34;100.00;101416.88;7377242;19;20506;-72
2022/11/06 01:34:58;;;;;;;16.48;6.22;;;;;;;9.37;100.00;101421.28;7375016;19;20018;-72
2022/11/06 01:37:28;;;;;;;15.60;6.03;;;;;;;9.32;100.00;101423.81;7373134;19;20014;-73
2022/11/06 01:39:57;;;;;;;13.00;5.70;;;;;;;9.33;100.00;101419.44;7377995;19;20011;-69
2022/11/06 01:42:27;;;;;;;11.68;5.53;;;;;;;9.33;100.00;101425.56;7377588;19;20014;-69
2022/11/06 01:45:35;;;;;;;15.77;5.97;;;;;;;9.31;100.00;101423.75;7380340;19;20369;-69
2022/11/06 01:48:05;;;;;;;16.23;5.63;;;;;;;9.31;100.00;101419.41;7385813;19;20023;-71
2022/11/06 01:50:37;;;;;;;14.05;5.68;;;;;;;9.31;100.00;101421.13;7379922;19;20014;-72
2022/11/06 01:53:07;;;;;;;10.38;6.15;;;;;;;9.28;100.00;101406.25;7382030;19;20093;-72
2022/11/06 01:55:40;;;;;;;14.00;6.10;;;;;;;9.28;100.00;101405.34;7380924;19;20018;-72
2022/11/06 01:58:13;;;;;;;12.48;6.38;;;;;;;9.25;100.00;101405.25;7384249;19;20068;-69
2022/11/06 02:00:44;;;;;;;;;;;;;;;9.31;100.00;101411.56;7382722;19;20018;-69
2022/11/06 02:03:15;;;;;;;10.65;5.35;;;;;;;9.27;100.00;101422.78;7377485;19;19919;-72
2022/11/06 02:05:47;;;;;;;15.45;6.10;;;;;;;9.27;100.00;101409.69;7381094;19;20025;-71
2022/11/06 02:08:20;;;;;;;15.10;6.00;;;;;;;9.26;100.00;101402.69;7379278;19;20017;-72
2022/11/06 02:10:50;;;;;;;11.80;5.80;;;;;;;9.28;100.00;101400.13;7381781;19;20019;-69
2022/11/06 02:13:32;;;;;;;15.75;5.85;;;;;;;9.28;100.00;101400.13;7383505;19;20015;-74
2022/11/06 02:16:09;;;;;;;14.15;6.15;;;;;;;9.27;100.00;101409.69;7379180;19;20022;-72
2022/11/06 02:18:50;;;;;;;14.85;5.93;;;;;;;9.28;100.00;101405.34;7381258;19;20019;-69
2022/11/06 02:21:46;;;;;;;16.60;7.07;;;;;;;9.30;100.00;101388.84;7381613;19;20031;-72
2022/11/06 02:24:35;;;;;;;15.20;6.78;;;;;;;9.31;100.00;101394.97;7381638;19;20019;-72
2022/11/06 02:27:12;;;;;;;16.33;6.55;;;;;;;9.28;100.00;101395.78;7382289;19;20022;-71
2022/11/06 02:29:48;;;;;;;15.27;6.50;;;;;;;9.28;100.00;101385.28;7381260;19;20014;-72
2022/11/06 02:32:23;;;;;;;12.77;6.45;;;;;;;9.36;100.00;101399.44;7380275;19;20031;-70
2022/11/06 02:34:56;;;;;;;16.25;7.07;;;;;;;9.32;100.00;101391.50;7382790;19;20022;-72
2022/11/06 02:37:31;;;;;;;14.95;6.47;;;;;;;9.34;100.00;101390.69;7382646;19;20082;-72
2022/11/06 02:40:04;;;;;;;18.23;7.35;;;;;;;9.33;100.00;101383.69;7378095;19;20242;-73
2022/11/06 02:42:39;;;;;;;16.67;6.93;;;;;;;9.35;100.00;101378.50;7382771;19;20103;-73
2022/11/06 02:45:12;;;;;;;14.73;8.00;;;;;;;9.35;100.00;101376.75;7378947;19;20027;-73
2022/11/06 02:47:44;;;;;;;17.48;7.80;;;;;;;9.33;100.00;101375.84;7380392;19;20021;-69
2022/11/06 02:50:19;;;;;;;18.33;8.13;;;;;;;9.30;100.00;101362.66;7379882;19;20019;-70
2022/11/06 02:52:54;;;;;;;17.40;8.05;;;;;;;9.33;100.00;101354.00;7383979;19;20018;-70
2022/11/06 02:55:30;;;;;;;11.88;7.22;;;;;;;9.35;100.00;101362.78;7378291;19;20022;-73
2022/11/06 02:58:10;;;;;;;14.93;7.25;;;;;;;9.31;100.00;101359.22;7379703;19;20111;-70
2022/11/06 03:00:42;;;;;;;18.00;7.72;;;;;;;9.29;100.00;101365.25;7377227;19;20014;-72
2022/11/06 03:03:18;;;;;;;17.55;7.32;;;;;;;9.29;100.00;101360.91;7377211;19;20633;-72
2022/11/06 03:05:53;;;;;;;17.60;7.95;;;;;;;9.30;100.00;101367.91;7373131;19;20298;-69
2022/11/06 03:08:28;;;;;;;16.88;7.82;;;;;;;9.34;100.00;101366.25;7377324;19;20018;-69
2022/11/06 03:11:06;;;;;;;25.02;8.18;;;;;;;9.34;100.00;101354.06;7376188;19;20015;-69
2022/11/06 03:13:48;;;;;;;14.88;7.47;;;;;;;9.37;100.00;101350.59;7374903;19;20026;-69
2022/11/06 03:16:28;;;;;;;18.13;8.45;;;;;;;9.38;100.00;101354.97;7379444;19;20018;-74
2022/11/06 03:19:04;;;;;;;20.95;8.77;;;;;;;9.40;100.00;101341.09;7376300;19;20021;-73
2022/11/06 03:21:40;;;;;;;22.95;8.82;;;;;;;9.40;100.00;101348.94;7375229;19;20468;-72
2022/11/06 03:24:15;;;;;;;15.75;8.25;;;;;;;9.39;100.00;101341.03;7371342;19;20031;-73
2022/11/06 03:26:48;;;;;;;18.35;8.52;;;;;;;9.41;100.00;101344.59;7374811;19;20401;-73
2022/11/06 03:29:25;;;;;;;18.98;8.98;;;;;;;9.42;100.00;101355.09;7377873;19;20025;-74
2022/11/06 03:31:59;;;;;;;16.30;6.55;;;;;;;9.50;100.00;101350.94;7375017;19;20010;-69
2022/11/06 03:34:30;;;;;;;;;;;;;;;9.41;100.00;101345.47;7374790;19;20015;-73
2022/11/06 03:37:06;;;;;;;16.50;9.07;;;;;;;9.43;100.00;101335.94;7376640;19;19922;-69
2022/11/06 03:39:41;;;;;;;21.77;9.40;;;;;;;9.44;100.00;101327.22;7377122;19;20042;-69
2022/11/06 03:42:15;;;;;;;20.30;9.35;;;;;;;9.46;100.00;101328.16;7374546;19;20022;-69
2022/11/06 03:44:51;;;;;;;17.80;9.30;;;;;;;9.47;100.00;101319.47;7372054;19;20014;-69
2022/11/06 03:47:26;;;;;;;24.13;10.38;;;;;;;9.46;100.00;101333.38;7373873;19;20003;-69
2022/11/06 03:50:01;;;;;;;18.55;8.98;;;;;;;9.50;100.00;101323.88;7377634;19;20022;-70
2022/11/06 03:52:35;;;;;;;20.13;9.15;;;;;;;9.45;100.00;101321.16;7369699;19;20494;-69
2022/11/06 03:55:10;;;;;;;19.38;8.40;;;;;;;9.49;100.00;101304.66;7372408;19;20020;-70
2022/11/06 03:57:43;;;;;;;23.50;9.68;;;;;;;9.50;100.00;101302.94;7371290;19;20022;-73
2022/11/06 04:00:19;;;;;;;23.65;9.18;;;;;;;9.54;100.00;101289.06;7376334;19;20015;-73
2022/11/06 04:03:03;;;;;;;17.73;9.10;;;;;;;9.55;100.00;101303.06;7371955;19;20029;-70
2022/11/06 04:05:40;;;;;;;22.77;8.20;;;;;;;9.52;100.00;101296.88;7373654;19;20086;-71
2022/11/06 04:14:00;;;;;;;17.45;7.70;;;;;;;9.56;100.00;101286.50;7369342;19;20022;-70
2022/11/06 04:16:37;;;;;;;17.77;7.80;;;;;;;9.59;100.00;101281.34;7372857;19;20498;-70
2022/11/06 04:19:12;;;;;;;20.00;9.10;;;;;;;9.65;100.00;101284.09;7375586;19;20521;-71
2022/11/06 04:21:56;;;;;;;15.52;7.32;;;;;;;9.62;100.00;101281.41;7374735;19;20021;-74
2022/11/06 04:27:37;;;;;;;20.10;8.95;;;;;;;9.67;100.00;101279.78;7376677;19;20024;-71
2022/11/06 04:30:10;;;;;;;18.45;8.93;;;;;;;9.63;100.00;101272.69;7374086;19;20086;-71
2022/11/06 04:33:02;;;;;;;21.15;8.70;;;;;;;9.62;100.00;101277.06;7370725;19;20021;-70
2022/11/06 04:35:39;;;;;;;12.65;6.75;;;;;;;9.67;100.00;101280.66;7367520;19;20047;-74
2022/11/06 04:38:14;;;;;;;17.48;8.10;;;;;;;9.65;100.00;101273.63;7372878;19;20014;-74
2022/11/06 04:40:53;;;;;;;17.90;8.32;;;;;;;9.65;100.00;101266.66;7373510;19;20212;-70
2022/11/06 04:43:30;;;;;;;14.23;7.82;;;;;;;9.62;100.00;101258.72;7371959;19;20365;-74
2022/11/06 04:46:03;;;;;;;16.67;7.30;;;;;;;9.61;100.00;101264.81;7372058;19;20018;-70
2022/11/06 04:48:36;;;;;;;14.02;7.57;;;;;;;9.57;100.00;101257.72;7374969;19;20074;-70
2022/11/06 04:51:09;;;;;;;17.42;8.00;;;;;;;9.59;100.00;101265.63;7373344;19;20014;-74
2022/11/06 04:53:41;;;;;;;17.80;7.18;;;;;;;9.60;100.00;101257.81;7370596;19;20010;-70
2022/11/06 04:56:13;;;;;;;14.68;7.03;;;;;;;9.56;100.00;101253.34;7372633;19;20021;-73
2022/11/06 04:58:49;;;;;;;18.00;7.30;;;;;;;9.54;100.00;101262.00;7372578;19;20010;-72
2022/11/06 05:01:19;;;;;;;15.82;6.78;;;;;;;9.51;100.00;101258.47;7371473;19;20018;-69
2022/11/06 05:03:52;;;;;;;15.90;7.57;;;;;;;9.48;100.00;101253.16;7372441;19;20014;-69
2022/11/06 05:06:21;;;;;;;18.85;6.65;;;;;;;9.51;100.00;101248.00;7373398;19;20101;-69
2022/11/06 05:09:00;;;;;;;15.40;7.00;;;;;;;9.52;100.00;101255.00;7375021;19;20023;-69
2022/11/06 05:11:29;;;;;;;12.20;6.22;;;;;;;9.46;100.00;101241.75;7373869;19;20014;-69
2022/11/06 05:13:59;;;;;;;12.25;6.35;;;;;;;9.48;100.00;101247.03;7373051;19;20037;-69
2022/11/06 05:16:29;;;;;;;12.05;6.97;;;;;;;9.49;100.00;101252.31;7376574;19;20015;-72
2022/11/06 05:19:01;;;;;;;14.35;6.70;;;;;;;9.50;100.00;101235.75;7373586;19;20018;-72
2022/11/06 05:24:13;;;;;;;15.60;6.47;;;;;;;9.48;100.00;101229.59;7371256;19;20026;-73
2022/11/06 05:26:43;;;;;;;11.95;5.95;;;;;;;9.52;100.00;101215.72;7372512;19;20010;-72
2022/11/06 05:29:12;;;;;;;15.13;5.85;;;;;;;9.52;100.00;101213.09;7371272;19;20018;-69
2022/11/06 05:31:42;;;;;;;12.40;5.85;;;;;;;9.50;100.00;101206.06;7366944;19;20015;-69
2022/11/06 05:34:14;;;;;;;16.70;6.47;;;;;;;9.43;100.00;101206.75;7373479;19;20029;-69
2022/11/06 05:36:44;;;;;;;14.60;6.15;;;;;;;9.44;100.00;101208.53;7374333;19;20011;-73
2022/11/06 05:39:14;;;;;;;13.65;6.70;;;;;;;9.44;100.00;101219.91;7372186;19;20191;-72
2022/11/06 05:41:44;;;;;;;10.60;4.93;;;;;;;9.46;100.00;101212.97;7369296;19;20596;-72
2022/11/06 05:44:14;;;;;;;12.43;6.38;;;;;;;9.41;100.00;101203.22;7372007;19;20019;-73
2022/11/06 05:46:43;;;;;;;12.05;5.15;;;;;;;9.38;100.00;101203.16;7370596;19;20015;-69
2022/11/06 05:49:21;;;;;;;11.32;5.80;;;;;;;9.39;100.00;101200.56;7367413;19;20006;-69
2022/11/06 05:51:50;;;;;;;12.23;5.13;;;;;;;9.38;100.00;101193.56;7372050;19;20018;-73
2022/11/06 05:54:20;;;;;;;10.80;5.10;;;;;;;9.41;100.00;101193.63;7372498;19;20038;-73
2022/11/06 05:56:50;;;;;;;13.02;5.75;;;;;;;9.36;100.00;101197.88;7369833;19;20011;-73
2022/11/06 05:59:19;;;;;;;9.57;5.35;;;;;;;9.47;100.00;101192.91;7368994;19;20191;-74
2022/11/06 06:01:49;;;;;;;15.13;5.68;;;;;;;9.44;100.00;101184.97;7371079;19;20054;-73
2022/11/06 06:04:22;;;;;;;12.18;5.22;;;;;;;9.41;100.00;101191.03;7370217;19;20037;-73
2022/11/06 06:06:52;;;;;;;13.40;6.35;;;;;;;9.43;100.00;101191.06;7370305;19;20014;-73
2022/11/06 06:09:22;;;;;;;9.93;5.00;;;;;;;9.47;100.00;101178.06;7370211;19;20010;-74
2022/11/06 06:11:53;;;;;;;12.43;4.97;;;;;;;9.41;100.00;101177.94;7370957;19;20010;-70
2022/11/06 06:14:23;;;;;;;11.00;4.65;;;;;;;9.42;100.00;101176.19;7373023;19;20010;-70
2022/11/06 06:16:53;;;;;;;10.70;4.30;;;;;;;9.40;100.00;101181.41;7372195;19;20299;-70
2022/11/06 06:19:25;;;;;;;11.43;4.65;;;;;;;9.44;100.00;101175.38;7370016;19;20020;-70
2022/11/06 06:21:55;;;;;;;11.60;4.32;;;;;;;9.47;100.00;101178.06;7369046;19;20011;-73
2022/11/06 06:24:24;;;;;;;17.55;5.00;;;;;;;9.46;100.00;101184.16;7371210;19;20021;-70
2022/11/06 06:26:54;;;;;;;14.35;5.10;;;;;;;9.46;100.00;101180.66;7375983;19;20027;-70
2022/11/06 06:29:24;;;;;;;9.57;4.32;;;;;;;9.40;100.00;101176.16;7372436;19;20015;-70
2022/11/06 06:31:53;;;;;;;13.63;4.40;;;;;;;9.39;100.00;101186.59;7375264;19;20492;-70
2022/11/06 06:34:26;;;;;;;8.55;4.50;;;;;;;9.44;100.00;101175.38;7376385;19;20017;-70
2022/11/06 06:36:56;;;;;;;11.85;4.45;;;;;;;9.44;100.00;101172.78;7376627;19;20022;-70
2022/11/06 06:39:25;;;;;;;11.88;4.35;;;;;;;9.41;100.00;101162.22;7378126;19;20042;-70
2022/11/06 06:41:55;;;;;;;11.55;4.43;;;;;;;9.40;100.00;101165.69;7376031;19;20042;-69
2022/11/06 06:44:25;;;;;;;19.08;4.72;;;;;;;9.41;100.00;101151.75;7373757;19;20014;-70
2022/11/06 06:46:54;;;;;;;16.15;5.55;;;;;;;9.49;100.00;101158.06;7376098;19;20011;-75
2022/11/06 06:49:27;;;;;;;13.05;4.53;;;;;;;9.50;100.00;101157.19;7375352;19;20017;-74
2022/11/06 06:51:56;;;;;;;12.07;3.97;;;;;;;9.53;100.00;101156.38;7376379;19;20457;-73
2022/11/06 06:54:26;;;;;;;11.85;4.38;;;;;;;9.50;100.00;101157.19;7375150;19;20379;-73
2022/11/06 06:56:56;;;;;;;15.13;4.60;;;;;;;9.59;100.00;101153.03;7380112;19;20017;-70
2022/11/06 06:59:25;;;;;;;11.20;4.00;;;;;;;9.59;100.00;101147.78;7376275;19;20021;-70
2022/11/06 07:01:55;;;;;;;10.70;3.92;;;;;;;9.60;100.00;101154.78;7376343;19;20094;-70
2022/11/06 07:04:27;;;;;;;11.65;5.35;;;;;;;9.64;100.00;101138.28;7378465;19;20083;-74
2022/11/06 07:06:59;;;;;;;10.85;4.68;;;;;;;9.68;100.00;101140.13;7377043;19;20647;-74
2022/11/06 07:09:32;;;;;;;10.38;4.07;;;;;;;9.65;100.00;101140.06;7377476;19;20018;-74
2022/11/06 07:12:02;;;;;;;9.93;4.77;;;;;;;9.72;100.00;101137.59;7377558;19;20309;-71
2022/11/06 07:14:32;;;;;;;13.55;5.07;;;;;;;9.71;100.00;101133.22;7371633;19;20219;-70
2022/11/06 07:17:01;;;;;;;11.65;4.05;;;;;;;9.75;100.00;101142.03;7376255;19;20102;-70
2022/11/06 07:19:34;;;;;;;11.68;4.22;;;;;;;9.78;100.00;101142.09;7375899;19;20023;-74
2022/11/06 07:22:03;;;;;;;14.48;4.40;;;;;;;9.85;100.00;101138.75;7375204;19;20025;-71
2022/11/06 07:24:33;;;;;;;9.50;4.13;;;;;;;9.86;100.00;101139.63;7373047;19;20014;-74
2022/11/06 07:27:03;;;;;;;9.55;3.75;;;;;;;9.90;100.00;101137.13;7371750;19;20022;-74
2022/11/06 07:29:33;;;;;;;10.65;3.80;;;;;;;9.96;100.00;101152.97;7376603;19;20023;-75
2022/11/06 07:32:02;;;;;;;8.07;3.42;;;;;;;10.01;100.00;101130.34;7373767;19;20014;-71
2022/11/06 07:34:37;;;;;;;8.05;4.07;;;;;;;10.01;100.00;101134.72;7373590;19;20042;-71
2022/11/06 07:37:07;;;;;;;8.25;3.58;;;;;;;10.09;100.00;101122.66;7369260;19;20092;-75
2022/11/06 07:39:37;;;;;;;12.07;4.05;;;;;;;10.13;100.00;101117.50;7375286;19;20011;-75
2022/11/06 07:42:07;;;;;;;11.82;4.10;;;;;;;10.22;100.00;101115.94;7373387;19;20051;-71
2022/11/06 07:44:38;;;;;;;8.32;3.63;;;;;;;10.27;100.00;101115.19;7368276;19;20539;-71
2022/11/06 07:47:08;;;;;;;10.27;3.15;;;;;;;10.31;100.00;101119.63;7375297;19;20007;-71
2022/11/06 07:49:41;;;;;;;5.68;3.13;;;;;;;10.33;100.00;101119.66;7375008;19;20022;-71
2022/11/06 07:52:19;;;;;;;8.80;2.97;;;;;;;10.36;100.00;101114.47;7373690;19;20015;-75
2022/11/06 07:54:49;;;;;;;8.27;3.45;;;;;;;10.39;100.00;101130.25;7375509;19;20015;-74
2022/11/06 07:57:19;;;;;;;7.55;2.88;;;;;;;10.40;100.00;101126.78;7373631;19;20220;-74
2022/11/06 07:59:49;;;;;;;8.10;2.90;;;;;;;10.41;100.00;101131.13;7374017;19;20023;-74
2022/11/06 08:02:19;;;;;;;9.93;3.38;;;;;;;10.47;100.00;101128.63;7372443;19;20017;-73
2022/11/06 08:04:52;;;;;;;8.73;3.20;;;;;;;10.47;100.00;101126.00;7373895;19;20118;-73
2022/11/06 08:07:21;;;;;;;10.80;3.42;;;;;;;10.45;100.00;101141.69;7373905;19;20017;-73
2022/11/06 08:09:51;;;;;;;8.68;3.58;;;;;;;10.46;100.00;101117.25;7374611;19;20010;-73
2022/11/06 08:12:21;;;;;;;8.75;2.90;;;;;;;10.43;100.00;101126.78;7377830;19;20025;-73
2022/11/06 08:14:51;;;;;;;7.85;3.15;;;;;;;10.39;100.00;101115.41;7374439;19;20035;-69
2022/11/06 08:17:20;;;;;;;9.55;3.08;;;;;;;10.32;100.00;101107.41;7373991;19;20015;-72
2022/11/06 08:19:53;;;;;;;6.88;3.33;;;;;;;10.32;100.00;101116.16;7375517;19;20018;-69
2022/11/06 08:22:23;;;;;;;9.15;3.08;;;;;;;10.27;100.00;101116.91;7373705;19;20458;-71
2022/11/06 08:24:52;;;;;;;9.40;3.13;;;;;;;10.25;100.00;101113.38;7374435;19;20021;-72
2022/11/06 08:27:22;;;;;;;8.85;3.30;;;;;;;10.22;100.00;101122.06;7374457;19;20708;-71
2022/11/06 08:29:52;;;;;;;8.88;3.40;;;;;;;10.20;100.00;101104.53;7373913;19;20018;-69
2022/11/06 08:32:21;;;;;;;8.27;3.03;;;;;;;10.22;100.00;101108.06;7370271;19;20019;-69
2022/11/06 08:34:54;;;;;;;4.80;2.60;;;;;;;10.28;100.00;101098.59;7375542;19;20021;-72
2022/11/06 08:37:23;;;;;;;11.32;3.40;;;;;;;10.29;100.00;101105.59;7374832;19;20022;-68
2022/11/06 08:39:54;;;;;;;8.30;3.00;;;;;;;10.26;100.00;101089.81;7377031;19;20022;-68
2022/11/06 08:42:24;;;;;;;14.15;3.33;;;;;;;10.29;100.00;101089.00;7375421;19;20077;-69
2022/11/06 08:44:53;;;;;;;9.85;3.03;;;;;;;10.27;100.00;101080.22;7377185;19;20030;-68
2022/11/06 08:47:24;;;;;;;7.07;3.17;;;;;;;10.28;100.00;101076.75;7369980;19;20486;-69
2022/11/06 08:49:57;;;;;;;9.77;4.05;;;;;;;10.32;100.00;101071.56;7370789;19;20101;-69
2022/11/06 08:52:26;;;;;;;10.57;3.05;;;;;;;10.29;100.00;101071.53;7375669;19;20028;-69
2022/11/06 08:55:02;;;;;;;11.10;3.10;;;;;;;10.30;100.00;101072.41;7373128;19;20461;-69
2022/11/06 08:57:32;;;;;;;9.18;3.78;;;;;;;10.26;100.00;101070.59;7374752;19;20029;-69
2022/11/06 09:00:02;;;;;;;8.95;3.42;;;;;;;10.21;100.00;101064.38;7376017;19;20014;-69
2022/11/06 09:02:32;;;;;;;8.27;3.60;;;;;;;10.18;100.00;101065.16;7373736;19;20021;-72
2022/11/06 09:05:04;;;;;;;8.82;3.60;;;;;;;10.16;100.00;101051.16;7373009;19;20014;-69
2022/11/06 09:07:34;;;;;;;8.43;3.83;;;;;;;10.15;100.00;101062.50;7371578;19;20024;-69
2022/11/06 09:10:04;;;;;;;7.13;3.33;;;;;;;10.22;100.00;101050.41;7375232;19;20098;-72
2022/11/06 09:12:33;;;;;;;10.15;4.15;;;;;;;10.21;100.00;101061.75;7373789;19;20131;-73
2022/11/06 09:15:03;;;;;;;8.90;3.30;;;;;;;10.17;100.00;101060.78;7375123;19;20025;-73
2022/11/06 09:17:32;;;;;;;11.70;4.03;;;;;;;10.19;100.00;101059.06;7374735;19;20021;-72
2022/11/06 09:20:05;;;;;;;10.80;3.38;;;;;;;10.28;100.00;101066.25;7372261;19;20037;-73
2022/11/06 09:22:35;;;;;;;9.07;3.83;;;;;;;10.29;100.00;101068.03;7372009;19;20477;-72
2022/11/06 09:25:05;;;;;;;10.70;4.03;;;;;;;10.40;100.00;101061.22;7372940;19;20019;-72
2022/11/06 09:27:34;;;;;;;10.57;3.83;;;;;;;10.48;100.00;101067.44;7372748;19;20106;-69
2022/11/06 09:30:04;;;;;;;10.82;4.40;;;;;;;10.54;100.00;101057.06;7371922;19;20015;-69
2022/11/06 09:32:34;;;;;;;8.35;3.80;;;;;;;10.62;100.00;101042.34;7368109;19;20474;-69
2022/11/06 09:35:07;;;;;;;6.40;3.30;;;;;;;10.69;100.00;101044.22;7368033;19;20097;-70
2022/11/06 09:37:37;;;;;;;7.18;3.55;;;;;;;10.71;100.00;101042.50;7371978;19;20019;-69
2022/11/06 09:40:08;;;;;;;10.77;3.75;;;;;;;10.72;100.00;101035.50;7371593;19;20018;-70
2022/11/06 09:42:50;;;;;;;13.65;4.28;;;;;;;10.76;100.00;101035.56;7370225;19;20024;-69
2022/11/06 09:45:24;;;;;;;11.30;3.90;;;;;;;10.78;100.00;101040.84;7371372;19;20015;-69
2022/11/06 09:47:59;;;;;;;9.18;3.90;;;;;;;10.80;100.00;101018.13;7369119;19;20457;-73
2022/11/06 09:50:37;;;;;;;10.90;4.88;;;;;;;10.89;100.00;101015.66;7373969;19;20011;-73
2022/11/06 09:53:14;;;;;;;6.68;3.45;;;;;;;10.94;100.00;101006.09;7371419;19;20022;-70
2022/11/06 09:55:46;;;;;;;6.78;4.18;;;;;;;11.04;100.00;101008.00;7371635;19;20101;-74
2022/11/06 09:58:19;;;;;;;8.95;3.15;;;;;;;11.00;100.00;101013.19;7372047;19;20010;-69
2022/11/06 10:00:52;;;;;;;9.57;3.67;;;;;;;11.09;100.00;101011.56;7375578;19;20054;-73
2022/11/06 10:03:29;;;;;;;13.25;4.65;;;;;;;11.07;100.00;101009.78;7381522;19;20010;-69
2022/11/06 10:06:02;;;;;;;9.57;3.70;;;;;;;11.08;100.00;101014.19;7381297;19;20018;-73
2022/11/06 10:08:32;;;;;;;7.88;3.80;;;;;;;11.03;100.00;101018.47;7378331;19;20018;-74
2022/11/06 10:11:05;;;;;;;10.63;4.18;;;;;;;11.07;100.00;101015.91;7373795;19;20023;-73
2022/11/06 10:13:54;;;;;;;8.48;3.70;;;;;;;11.05;100.00;101016.75;7379688;19;20018;-73
2022/11/06 10:16:36;;;;;;;10.07;4.03;;;;;;;11.09;100.00;101010.69;7380429;19;20026;-73
2022/11/06 10:19:12;;;;;;;11.55;3.83;;;;;;;11.07;100.00;101007.16;7377022;19;20018;-74
2022/11/06 10:22:04;;;;;;;8.15;3.53;;;;;;;11.08;100.00;101004.56;7380821;19;20023;-69
2022/11/06 10:24:41;;;;;;;9.10;3.90;;;;;;;11.12;100.00;101001.13;7378772;19;20090;-70
2022/11/06 10:27:17;;;;;;;10.13;3.70;;;;;;;11.00;100.00;100992.19;7376206;19;20014;-74
2022/11/06 10:30:02;;;;;;;11.40;3.50;;;;;;;10.98;100.00;101000.03;7376066;19;20018;-72
2022/11/06 10:32:45;;;;;;;12.50;3.78;;;;;;;10.93;100.00;100992.97;7380328;19;20009;-69
2022/11/06 10:35:20;;;;;;;7.53;3.65;;;;;;;10.85;100.00;100984.97;7381205;19;20030;-69
2022/11/06 10:37:57;;;;;;;8.50;3.80;;;;;;;10.84;100.00;100984.97;7376851;19;20018;-69
2022/11/06 10:40:30;;;;;;;10.45;4.00;;;;;;;10.80;100.00;100982.28;7383299;19;20018;-69
2022/11/06 10:43:10;;;;;;;14.38;3.75;;;;;;;10.81;100.00;100970.94;7381815;19;20453;-69
2022/11/06 10:45:44;;;;;;;9.25;3.83;;;;;;;10.82;100.00;100969.19;7377580;19;20283;-69
2022/11/06 10:48:22;;;;;;;9.82;3.78;;;;;;;10.82;100.00;100959.59;7373961;19;20018;-69
2022/11/06 10:51:10;;;;;;;7.10;3.50;;;;;;;10.85;100.00;100958.75;7373200;19;20022;-69
2022/11/06 10:53:54;;;;;;;7.18;2.72;;;;;;;10.82;100.00;100956.97;7377884;19;20017;-69
2022/11/06 10:56:46;;;;;;;10.60;3.65;;;;;;;10.80;100.00;100940.31;7381359;19;20022;-69
2022/11/06 10:59:17;;;;;;;9.63;4.30;;;;;;;10.85;100.00;100942.13;7376947;19;20022;-73
2022/11/06 11:01:47;;;;;;;11.35;3.47;;;;;;;10.84;100.00;100950.84;7378297;19;20014;-72
2022/11/06 11:04:17;;;;;;;7.82;3.25;;;;;;;10.83;100.00;100942.09;7376799;19;20038;-72
2022/11/06 11:06:47;;;;;;;18.23;4.60;;;;;;;10.83;100.00;100942.09;7373261;19;20546;-72
2022/11/06 11:09:35;;;;;;;8.18;3.08;;;;;;;10.80;100.00;100916.72;7372846;19;20295;-72
2022/11/06 11:12:05;;;;;;;13.57;3.67;;;;;;;10.89;100.00;100930.81;7371725;19;20029;-72
2022/11/06 11:14:35;;;;;;;9.25;3.08;;;;;;;10.84;100.00;100940.34;7376067;19;20018;-71
2022/11/06 11:17:09;;;;;;;9.18;2.97;;;;;;;10.84;100.00;100937.72;7376069;19;20518;-72
2022/11/06 11:19:42;;;;;;;5.65;2.67;;;;;;;10.76;100.00;100938.50;7377320;19;20018;-73
2022/11/06 11:22:21;;;;;;;5.07;2.15;;;;;;;10.73;100.00;100932.34;7374334;19;20042;-73
2022/11/06 11:25:04;;;;;;;10.18;2.85;;;;;;;10.75;100.00;100938.50;7375420;19;20026;-69
2022/11/06 11:27:39;;;;;;;10.23;2.63;;;;;;;10.62;100.00;100936.56;7376871;19;20303;-69
2022/11/06 11:30:22;;;;;;;8.80;3.15;;;;;;;10.55;100.00;100934.69;7379098;19;20022;-69
2022/11/06 11:32:52;;;;;;;8.23;2.90;;;;;;;10.48;100.00;100923.22;7377341;19;20017;-69
2022/11/06 11:35:27;;;;;;;8.95;2.70;;;;;;;10.42;100.00;100916.16;7375359;19;20014;-69
2022/11/06 11:38:08;;;;;;;9.18;2.67;;;;;;;10.40;100.00;100914.41;7373659;19;20231;-73
2022/11/06 11:40:42;;;;;;;12.48;2.83;;;;;;;10.44;100.00;100903.06;7378047;19;20103;-73
2022/11/06 11:43:28;;;;;;;6.57;2.78;;;;;;;10.41;100.00;100896.03;7376955;19;20006;-69
2022/11/06 11:46:19;;;;;;;6.93;2.85;;;;;;;10.44;100.00;100889.97;7376112;19;20021;-69
2022/11/06 11:48:51;;;;;;;7.45;3.05;;;;;;;10.53;100.00;100874.34;7372144;19;20022;-69
2022/11/06 11:51:34;;;;;;;7.68;2.90;;;;;;;10.54;100.00;100878.75;7376824;19;20015;-69
2022/11/06 11:54:08;;;;;;;10.05;2.97;;;;;;;10.53;100.00;100865.59;7373999;19;20025;-69
2022/11/06 11:56:47;;;;;;;8.05;2.88;;;;;;;10.54;100.00;100857.75;7373334;19;20014;-69